createdAt,value
2023-03-21T00:00:02.953Z,8.00
2023-03-21T00:01:02.971Z,8.00
2023-03-21T00:02:03.086Z,8.00
2023-03-21T00:03:03.052Z,8.00
2023-03-21T00:04:03.056Z,8.00
2023-03-21T00:05:09.555Z,8.00
2023-03-21T00:06:02.837Z,8.00
2023-03-21T00:07:02.917Z,8.00
2023-03-21T00:08:02.930Z,8.00
2023-03-21T00:09:03.023Z,8.00
2023-03-21T00:10:12.744Z,8.00
2023-03-21T00:11:03.077Z,8.00
2023-03-21T00:12:02.923Z,8.00
2023-03-21T00:13:03.059Z,8.00
2023-03-21T00:14:03.032Z,8.00
2023-03-21T00:15:03.021Z,8.00
2023-03-21T00:16:05.010Z,8.00
2023-03-21T00:17:03.047Z,8.00
2023-03-21T00:18:02.985Z,8.00
2023-03-21T00:19:03.001Z,8.00
2023-03-21T00:20:02.881Z,8.00
2023-03-21T00:21:29.664Z,8.00
2023-03-21T00:22:07.782Z,8.00
2023-03-21T00:23:03.565Z,8.00
2023-03-21T00:24:03.627Z,8.00
2023-03-21T00:25:03.503Z,8.00
2023-03-21T00:26:03.597Z,8.10
2023-03-21T00:27:26.813Z,8.00
2023-03-21T00:28:08.182Z,8.00
2023-03-21T00:29:03.521Z,8.00
2023-03-21T00:30:03.501Z,8.00
2023-03-21T00:31:03.529Z,8.00
2023-03-21T00:32:03.439Z,8.10
2023-03-21T00:33:12.225Z,8.00
2023-03-21T00:34:03.510Z,8.00
2023-03-21T00:35:26.081Z,8.00
2023-03-21T00:36:05.346Z,8.00
2023-03-21T00:37:02.709Z,8.00
2023-03-21T00:38:02.771Z,8.00
2023-03-21T00:39:02.853Z,8.00
2023-03-21T00:40:03.263Z,8.00
2023-03-21T00:41:07.883Z,8.00
2023-03-21T00:42:03.300Z,8.00
2023-03-21T00:43:03.261Z,8.00
2023-03-21T00:44:03.224Z,8.00
2023-03-21T00:45:03.353Z,8.00
2023-03-21T00:46:03.323Z,8.00
2023-03-21T00:47:07.294Z,8.00
2023-03-21T00:48:03.388Z,8.00
2023-03-21T00:49:03.374Z,8.00
2023-03-21T00:50:03.519Z,8.00
2023-03-21T00:51:03.501Z,8.00
2023-03-21T00:52:15.017Z,8.10
2023-03-21T00:54:02.825Z,8.00
2023-03-21T00:55:02.763Z,8.00
2023-03-21T00:56:02.852Z,8.00
2023-03-21T00:57:02.856Z,8.10
2023-03-21T00:58:02.927Z,8.10
2023-03-21T00:59:03.007Z,8.10
2023-03-21T01:00:02.970Z,8.10
2023-03-21T01:01:03.043Z,8.10
2023-03-21T01:02:03.216Z,8.10
2023-03-21T01:03:11.507Z,8.10
2023-03-21T01:04:03.056Z,8.10
2023-03-21T01:05:03.150Z,8.10
2023-03-21T01:06:03.051Z,8.10
2023-03-21T01:07:03.059Z,8.10
2023-03-21T01:08:04.346Z,8.00
2023-03-21T01:09:02.944Z,8.10
2023-03-21T01:10:03.156Z,8.10
2023-03-21T01:11:03.238Z,8.10
2023-03-21T01:12:03.362Z,8.10
2023-03-21T01:13:03.404Z,8.00
2023-03-21T01:14:19.082Z,8.00
2023-03-21T01:15:03.452Z,8.00
2023-03-21T01:16:03.530Z,8.00
2023-03-21T01:17:03.538Z,8.00
2023-03-21T01:18:03.524Z,8.00
2023-03-21T01:19:05.108Z,8.00
2023-03-21T01:20:03.495Z,8.00
2023-03-21T01:21:03.460Z,8.00
2023-03-21T01:22:03.576Z,8.00
2023-03-21T01:23:03.562Z,8.00
2023-03-21T01:24:03.621Z,8.00
2023-03-21T01:25:19.482Z,8.00
2023-03-21T01:26:02.634Z,8.00
2023-03-21T01:27:02.716Z,8.10
2023-03-21T01:28:02.700Z,8.10
2023-03-21T01:29:02.629Z,8.10
2023-03-21T01:30:04.259Z,8.10
2023-03-21T01:31:02.797Z,8.10
2023-03-21T01:32:02.711Z,8.00
2023-03-21T01:33:02.732Z,8.10
2023-03-21T01:34:02.829Z,8.10
2023-03-21T01:35:03.005Z,8.00
2023-03-21T01:36:11.987Z,8.00
2023-03-21T01:37:03.123Z,8.10
2023-03-21T01:38:02.992Z,8.10
2023-03-21T01:39:02.951Z,8.00
2023-03-21T01:40:03.011Z,8.00
2023-03-21T01:41:08.535Z,8.00
2023-03-21T01:42:03.079Z,8.00
2023-03-21T01:43:03.012Z,8.00
2023-03-21T01:44:03.052Z,8.00
2023-03-21T01:45:03.088Z,8.10
2023-03-21T01:46:03.043Z,8.00
2023-03-21T01:47:10.836Z,8.00
2023-03-21T01:48:02.999Z,8.00
2023-03-21T01:49:03.050Z,8.00
2023-03-21T01:50:03.088Z,8.00
2023-03-21T01:51:02.925Z,8.00
2023-03-21T01:52:10.085Z,8.00
2023-03-21T01:53:02.965Z,8.00
2023-03-21T01:54:02.917Z,8.00
2023-03-21T01:55:02.947Z,8.00
2023-03-21T01:56:02.923Z,8.00
2023-03-21T01:57:03.312Z,8.00
2023-03-21T01:58:06.148Z,8.00
2023-03-21T01:59:03.428Z,8.00
2023-03-21T02:00:03.351Z,8.00
2023-03-21T02:01:03.469Z,8.00
2023-03-21T02:02:03.408Z,8.00
2023-03-21T02:03:12.761Z,8.00
2023-03-21T02:04:03.407Z,8.00
2023-03-21T02:05:03.438Z,8.00
2023-03-21T02:06:03.419Z,8.00
2023-03-21T02:07:03.561Z,8.00
2023-03-21T02:08:03.475Z,8.00
2023-03-21T02:09:03.638Z,8.00
2023-03-21T02:10:03.556Z,8.00
2023-03-21T02:11:03.499Z,8.00
2023-03-21T02:12:03.627Z,8.00
2023-03-21T02:13:03.538Z,8.00
2023-03-21T02:14:06.505Z,8.00
2023-03-21T02:15:03.555Z,8.00
2023-03-21T02:16:03.590Z,8.00
2023-03-21T02:17:03.585Z,8.00
2023-03-21T02:18:02.693Z,8.00
2023-03-21T02:19:02.694Z,8.00
2023-03-21T02:20:03.011Z,8.00
2023-03-21T02:21:03.091Z,8.00
2023-03-21T02:22:02.794Z,8.00
2023-03-21T02:23:02.938Z,8.00
2023-03-21T02:24:02.921Z,8.00
2023-03-21T02:25:08.257Z,8.00
2023-03-21T02:26:03.018Z,8.00
2023-03-21T02:27:04.483Z,8.00
2023-03-21T02:28:03.081Z,8.00
2023-03-21T02:29:03.207Z,8.00
2023-03-21T02:30:03.215Z,8.00
2023-03-21T02:31:03.203Z,8.00
2023-03-21T02:32:15.071Z,8.00
2023-03-21T02:33:03.286Z,8.00
2023-03-21T02:34:03.284Z,8.00
2023-03-21T02:35:03.197Z,8.00
2023-03-21T02:36:13.334Z,8.00
2023-03-21T02:37:03.297Z,8.00
2023-03-21T02:38:03.356Z,8.00
2023-03-21T02:39:03.351Z,8.00
2023-03-21T02:40:03.332Z,8.00
2023-03-21T02:41:05.308Z,8.00
2023-03-21T02:42:03.398Z,8.00
2023-03-21T02:43:04.261Z,8.00
2023-03-21T02:44:03.366Z,8.00
2023-03-21T02:45:03.428Z,8.00
2023-03-21T02:46:03.435Z,8.00
2023-03-21T02:47:06.152Z,8.00
2023-03-21T02:48:04.141Z,8.00
2023-03-21T02:49:03.521Z,8.00
2023-03-21T02:50:03.537Z,8.00
2023-03-21T02:51:03.490Z,8.00
2023-03-21T02:52:15.490Z,8.00
2023-03-21T02:53:03.459Z,8.00
2023-03-21T02:54:28.074Z,8.00
2023-03-21T02:55:02.740Z,8.00
2023-03-21T02:56:02.628Z,8.00
2023-03-21T02:57:02.839Z,8.00
2023-03-21T02:58:12.232Z,8.00
2023-03-21T02:59:02.880Z,8.00
2023-03-21T03:00:14.170Z,8.00
2023-03-21T03:01:02.896Z,8.00
2023-03-21T03:02:03.062Z,8.00
2023-03-21T03:03:09.845Z,8.00
2023-03-21T03:04:03.030Z,8.00
2023-03-21T03:05:08.967Z,8.00
2023-03-21T03:06:03.166Z,8.00
2023-03-21T03:07:03.190Z,8.00
2023-03-21T03:08:03.077Z,8.00
2023-03-21T03:09:03.261Z,8.00
2023-03-21T03:10:02.654Z,8.00
2023-03-21T03:11:02.634Z,8.00
2023-03-21T03:12:02.618Z,8.00
2023-03-21T03:13:02.730Z,8.00
2023-03-21T03:14:15.829Z,8.00
2023-03-21T03:15:04.120Z,8.00
2023-03-21T03:16:03.040Z,8.00
2023-03-21T03:17:03.032Z,8.00
2023-03-21T03:18:02.995Z,8.00
2023-03-21T03:19:02.992Z,8.00
2023-03-21T03:20:13.841Z,8.00
2023-03-21T03:21:03.060Z,8.00
2023-03-21T03:22:02.929Z,8.00
2023-03-21T03:23:02.950Z,8.00
2023-03-21T03:24:02.946Z,7.90
2023-03-21T03:25:12.771Z,8.00
2023-03-21T03:26:02.941Z,8.00
2023-03-21T03:27:02.906Z,8.00
2023-03-21T03:28:03.062Z,7.90
2023-03-21T03:29:03.077Z,8.00
2023-03-21T03:30:03.160Z,7.90
2023-03-21T03:31:09.441Z,7.90
2023-03-21T03:32:03.168Z,8.00
2023-03-21T03:33:03.223Z,8.00
2023-03-21T03:34:03.193Z,8.00
2023-03-21T03:35:03.619Z,7.90
2023-03-21T03:36:06.340Z,7.90
2023-03-21T03:37:03.583Z,8.00
2023-03-21T03:38:03.670Z,8.00
2023-03-21T03:39:03.575Z,8.00
2023-03-21T03:40:03.602Z,8.00
2023-03-21T03:41:03.618Z,8.00
2023-03-21T03:42:15.199Z,8.00
2023-03-21T03:43:03.546Z,8.00
2023-03-21T03:44:03.567Z,8.00
2023-03-21T03:45:02.666Z,8.00
2023-03-21T03:46:02.681Z,8.00
2023-03-21T03:47:03.582Z,8.00
2023-03-21T03:48:02.764Z,8.00
2023-03-21T03:49:02.676Z,8.00
2023-03-21T03:50:03.654Z,8.00
2023-03-21T03:51:03.602Z,8.00
2023-03-21T03:52:03.647Z,8.00
2023-03-21T03:53:07.073Z,8.00
2023-03-21T03:54:02.699Z,8.00
2023-03-21T03:55:02.759Z,8.00
2023-03-21T03:56:02.769Z,8.00
2023-03-21T03:57:02.737Z,8.00
2023-03-21T03:58:04.623Z,8.00
2023-03-21T03:59:02.833Z,7.90
2023-03-21T04:00:02.790Z,8.00
2023-03-21T04:01:02.853Z,7.90
2023-03-21T04:02:02.982Z,8.00
2023-03-21T04:03:03.115Z,7.90
2023-03-21T04:04:12.465Z,8.00
2023-03-21T04:05:02.958Z,8.00
2023-03-21T04:06:03.051Z,7.90
2023-03-21T04:07:03.036Z,8.00
2023-03-21T04:08:03.030Z,8.00
2023-03-21T04:09:07.861Z,8.00
2023-03-21T04:10:03.159Z,8.00
2023-03-21T04:11:03.087Z,8.00
2023-03-21T04:12:03.124Z,7.90
2023-03-21T04:13:03.025Z,7.90
2023-03-21T04:14:03.005Z,7.90
2023-03-21T04:15:09.845Z,7.90
2023-03-21T04:16:03.129Z,7.90
2023-03-21T04:17:03.059Z,7.90
2023-03-21T04:18:03.106Z,7.90
2023-03-21T04:19:03.394Z,7.90
2023-03-21T04:20:11.276Z,7.90
2023-03-21T04:21:03.470Z,7.90
2023-03-21T04:22:03.391Z,7.90
2023-03-21T04:23:03.440Z,7.90
2023-03-21T04:24:03.441Z,7.90
2023-03-21T04:25:03.514Z,7.90
2023-03-21T04:26:03.572Z,7.80
2023-03-21T04:27:02.596Z,7.80
2023-03-21T04:28:02.774Z,7.80
2023-03-21T04:29:02.835Z,7.80
2023-03-21T04:30:02.806Z,7.80
2023-03-21T04:31:08.680Z,7.80
2023-03-21T04:32:02.888Z,7.80
2023-03-21T04:33:02.815Z,7.80
2023-03-21T04:34:02.980Z,7.80
2023-03-21T04:35:03.032Z,7.80
2023-03-21T04:36:03.003Z,7.80
2023-03-21T04:37:03.066Z,7.80
2023-03-21T04:38:03.074Z,7.70
2023-03-21T04:39:03.104Z,7.70
2023-03-21T04:40:03.145Z,7.70
2023-03-21T04:41:03.241Z,7.70
2023-03-21T04:42:03.291Z,7.70
2023-03-21T04:43:03.183Z,7.70
2023-03-21T04:44:03.163Z,7.70
2023-03-21T04:45:03.294Z,7.60
2023-03-21T04:46:03.249Z,7.60
2023-03-21T04:47:03.341Z,7.60
2023-03-21T04:48:03.469Z,7.60
2023-03-21T04:49:03.369Z,7.60
2023-03-21T04:50:03.440Z,7.60
2023-03-21T04:51:03.440Z,7.60
2023-03-21T04:52:03.507Z,7.60
2023-03-21T04:53:03.578Z,7.60
2023-03-21T04:54:03.522Z,7.60
2023-03-21T04:55:03.477Z,7.60
2023-03-21T04:56:03.575Z,7.60
2023-03-21T04:57:03.495Z,7.60
2023-03-21T04:58:03.587Z,7.60
2023-03-21T04:59:03.522Z,7.50
2023-03-21T05:00:03.834Z,7.50
2023-03-21T05:01:03.649Z,7.50
2023-03-21T05:02:03.591Z,7.50
2023-03-21T05:03:02.655Z,7.50
2023-03-21T05:04:02.709Z,7.50
2023-03-21T05:05:02.670Z,7.50
2023-03-21T05:06:02.642Z,7.50
2023-03-21T05:07:02.760Z,7.50
2023-03-21T05:08:02.726Z,7.50
2023-03-21T05:09:02.680Z,7.50
2023-03-21T05:10:02.898Z,7.50
2023-03-21T05:11:02.696Z,7.50
2023-03-21T05:12:02.657Z,7.50
2023-03-21T05:13:02.669Z,7.50
2023-03-21T05:14:02.745Z,7.50
2023-03-21T05:15:02.922Z,7.50
2023-03-21T05:16:02.822Z,7.50
2023-03-21T05:17:02.935Z,7.50
2023-03-21T05:18:02.977Z,7.50
2023-03-21T05:19:03.012Z,7.50
2023-03-21T05:20:02.974Z,7.60
2023-03-21T05:21:03.071Z,7.50
2023-03-21T05:22:03.108Z,7.60
2023-03-21T05:23:03.146Z,7.60
2023-03-21T05:24:03.112Z,7.50
2023-03-21T05:25:03.482Z,7.60
2023-03-21T05:26:03.518Z,7.60
2023-03-21T05:27:02.668Z,7.60
2023-03-21T05:28:02.750Z,7.60
2023-03-21T05:29:02.709Z,7.60
2023-03-21T05:30:02.747Z,7.60
2023-03-21T05:31:02.713Z,7.60
2023-03-21T05:32:02.796Z,7.60
2023-03-21T05:33:02.719Z,7.60
2023-03-21T05:34:02.767Z,7.60
2023-03-21T05:35:02.721Z,7.60
2023-03-21T05:36:02.759Z,7.60
2023-03-21T05:37:02.821Z,7.60
2023-03-21T05:38:02.798Z,7.60
2023-03-21T05:39:02.853Z,7.60
2023-03-21T05:40:02.841Z,7.60
2023-03-21T05:41:02.812Z,7.60
2023-03-21T05:42:02.804Z,7.60
2023-03-21T05:43:02.817Z,7.60
2023-03-21T05:44:02.751Z,7.70
2023-03-21T05:45:02.795Z,7.70
2023-03-21T05:46:02.897Z,7.70
2023-03-21T05:47:02.791Z,7.70
2023-03-21T05:48:02.938Z,7.70
2023-03-21T05:49:02.883Z,7.70
2023-03-21T05:50:02.808Z,7.70
2023-03-21T05:51:02.896Z,7.70
2023-03-21T05:52:02.911Z,7.70
2023-03-21T05:53:02.922Z,7.70
2023-03-21T05:54:03.531Z,7.70
2023-03-21T05:55:03.681Z,7.70
2023-03-21T05:56:03.569Z,7.80
2023-03-21T05:57:03.527Z,7.80
2023-03-21T05:58:04.595Z,7.80
2023-03-21T05:59:03.632Z,7.80
2023-03-21T06:00:03.567Z,7.80
2023-03-21T06:01:02.738Z,7.80
2023-03-21T06:02:02.687Z,7.80
2023-03-21T06:03:02.747Z,7.80
2023-03-21T06:04:02.712Z,7.80
2023-03-21T06:05:02.766Z,7.80
2023-03-21T06:06:02.702Z,7.90
2023-03-21T06:07:02.698Z,7.90
2023-03-21T06:08:02.760Z,7.90
2023-03-21T06:09:02.754Z,7.90
2023-03-21T06:10:02.826Z,7.90
2023-03-21T06:11:02.796Z,7.90
2023-03-21T06:12:02.764Z,7.90
2023-03-21T06:13:02.715Z,7.90
2023-03-21T06:14:02.713Z,7.90
2023-03-21T06:15:02.905Z,7.90
2023-03-21T06:16:02.840Z,8.00
2023-03-21T06:17:02.738Z,8.00
2023-03-21T06:18:02.825Z,8.00
2023-03-21T06:19:02.769Z,8.00
2023-03-21T06:20:02.847Z,8.00
2023-03-21T06:21:03.027Z,8.00
2023-03-21T06:22:02.941Z,8.00
2023-03-21T06:23:02.946Z,8.00
2023-03-21T06:24:02.936Z,8.00
2023-03-21T06:25:02.969Z,8.00
2023-03-21T06:26:02.784Z,8.00
2023-03-21T06:27:04.055Z,8.00
2023-03-21T06:28:02.816Z,8.10
2023-03-21T06:29:02.825Z,8.10
2023-03-21T06:30:02.805Z,8.10
2023-03-21T06:31:02.771Z,8.10
2023-03-21T06:32:02.844Z,8.10
2023-03-21T06:33:02.706Z,8.10
2023-03-21T06:34:02.733Z,8.20
2023-03-21T06:35:02.786Z,8.20
2023-03-21T06:36:02.871Z,8.20
2023-03-21T06:37:02.779Z,8.20
2023-03-21T06:38:02.835Z,8.30
2023-03-21T06:39:02.770Z,8.30
2023-03-21T06:40:02.706Z,8.30
2023-03-21T06:41:03.013Z,8.30
2023-03-21T06:42:02.970Z,8.40
2023-03-21T06:43:02.748Z,8.40
2023-03-21T06:44:03.028Z,8.40
2023-03-21T06:45:02.915Z,8.40
2023-03-21T06:46:02.851Z,8.40
2023-03-21T06:47:03.055Z,8.50
2023-03-21T06:48:02.996Z,8.50
2023-03-21T06:49:02.866Z,8.50
2023-03-21T06:50:02.937Z,8.50
2023-03-21T06:51:02.674Z,8.60
2023-03-21T06:52:02.712Z,8.60
2023-03-21T06:53:02.634Z,8.60
2023-03-21T06:54:02.747Z,8.60
2023-03-21T06:55:03.615Z,8.60
2023-03-21T06:56:02.667Z,8.60
2023-03-21T06:57:02.726Z,8.70
2023-03-21T06:58:02.782Z,8.70
2023-03-21T06:59:02.881Z,8.70
2023-03-21T07:00:02.968Z,8.70
2023-03-21T07:01:02.931Z,8.70
2023-03-21T07:02:02.971Z,8.70
2023-03-21T07:03:03.056Z,8.80
2023-03-21T07:04:03.048Z,8.80
2023-03-21T07:05:03.131Z,8.80
2023-03-21T07:06:03.210Z,8.80
2023-03-21T07:07:03.260Z,8.80
2023-03-21T07:08:03.225Z,8.80
2023-03-21T07:09:03.320Z,8.80
2023-03-21T07:10:03.271Z,8.80
2023-03-21T07:11:03.276Z,8.80
2023-03-21T07:12:03.278Z,8.80
2023-03-21T07:13:03.134Z,8.80
2023-03-21T07:14:03.116Z,8.90
2023-03-21T07:15:03.182Z,8.90
2023-03-21T07:16:03.310Z,8.90
2023-03-21T07:17:03.331Z,8.90
2023-03-21T07:18:03.341Z,8.90
2023-03-21T07:19:03.250Z,8.90
2023-03-21T07:20:03.211Z,9.00
2023-03-21T07:21:03.292Z,9.00
2023-03-21T07:22:03.318Z,9.00
2023-03-21T07:23:03.227Z,9.10
2023-03-21T07:24:03.314Z,9.10
2023-03-21T07:25:05.332Z,9.10
2023-03-21T07:26:03.401Z,9.20
2023-03-21T07:27:03.336Z,9.20
2023-03-21T07:28:03.317Z,9.20
2023-03-21T07:29:03.332Z,9.30
2023-03-21T07:30:03.265Z,9.30
2023-03-21T07:31:03.263Z,9.30
2023-03-21T07:32:03.257Z,9.40
2023-03-21T07:33:03.452Z,9.40
2023-03-21T07:34:03.297Z,9.50
2023-03-21T07:35:03.447Z,9.50
2023-03-21T07:36:03.548Z,9.50
2023-03-21T07:37:03.608Z,9.60
2023-03-21T07:38:02.692Z,9.60
2023-03-21T07:39:02.832Z,9.70
2023-03-21T07:40:02.810Z,9.70
2023-03-21T07:41:03.228Z,9.80
2023-03-21T07:42:03.417Z,9.80
2023-03-21T07:44:03.333Z,9.90
2023-03-21T07:45:03.290Z,9.90
2023-03-21T07:46:03.291Z,10.00
2023-03-21T07:47:03.295Z,10.00
2023-03-21T07:48:03.397Z,10.10
2023-03-21T07:49:03.403Z,10.10
2023-03-21T07:50:03.486Z,10.20
2023-03-21T07:51:02.688Z,10.20
2023-03-21T07:52:04.623Z,10.30
2023-03-21T07:53:03.213Z,10.30
2023-03-21T07:54:03.385Z,10.40
2023-03-21T07:55:03.363Z,10.40
2023-03-21T07:56:03.374Z,10.50
2023-03-21T07:57:03.509Z,10.50
2023-03-21T07:58:03.472Z,10.50
2023-03-21T07:59:03.571Z,10.60
2023-03-21T08:00:03.605Z,10.60
2023-03-21T08:01:03.486Z,10.70
2023-03-21T08:02:03.515Z,10.70
2023-03-21T08:03:03.613Z,10.70
2023-03-21T08:04:03.589Z,10.80
2023-03-21T08:05:03.557Z,10.80
2023-03-21T08:06:03.590Z,10.80
2023-03-21T08:07:03.677Z,10.80
2023-03-21T08:08:02.671Z,10.90
2023-03-21T08:09:02.774Z,10.90
2023-03-21T08:10:02.827Z,10.90
2023-03-21T08:11:02.945Z,10.90
2023-03-21T08:12:02.873Z,10.90
2023-03-21T08:13:02.950Z,11.00
2023-03-21T08:14:02.878Z,11.00
2023-03-21T08:15:02.832Z,11.00
2023-03-21T08:16:02.820Z,11.00
2023-03-21T08:17:02.842Z,11.00
2023-03-21T08:18:02.933Z,11.10
2023-03-21T08:19:02.894Z,11.10
2023-03-21T08:20:02.894Z,11.10
2023-03-21T08:21:02.920Z,11.10
2023-03-21T08:22:02.882Z,11.20
2023-03-21T08:23:03.113Z,11.20
2023-03-21T08:24:03.038Z,11.20
2023-03-21T08:25:03.165Z,11.30
2023-03-21T08:26:03.210Z,11.30
2023-03-21T08:27:03.167Z,11.40
2023-03-21T08:28:03.030Z,11.40
2023-03-21T08:29:03.086Z,11.50
2023-03-21T08:30:03.186Z,11.50
2023-03-21T08:31:03.150Z,11.60
2023-03-21T08:32:03.221Z,11.60
2023-03-21T08:33:03.254Z,11.70
2023-03-21T08:34:03.336Z,11.70
2023-03-21T08:35:03.330Z,11.80
2023-03-21T08:36:03.210Z,11.80
2023-03-21T08:37:03.318Z,11.90
2023-03-21T08:38:03.461Z,11.90
2023-03-21T08:39:03.414Z,12.00
2023-03-21T08:40:03.489Z,12.00
2023-03-21T08:41:03.357Z,12.00
2023-03-21T08:42:03.536Z,12.10
2023-03-21T08:43:03.461Z,12.10
2023-03-21T08:44:03.609Z,12.10
2023-03-21T08:45:03.539Z,12.20
2023-03-21T08:46:02.702Z,12.20
2023-03-21T08:47:02.614Z,12.20
2023-03-21T08:48:02.813Z,12.30
2023-03-21T08:49:02.738Z,12.30
2023-03-21T08:50:02.795Z,12.30
2023-03-21T08:51:02.807Z,12.40
2023-03-21T08:52:02.786Z,12.40
2023-03-21T08:53:02.822Z,12.40
2023-03-21T08:54:02.906Z,12.40
2023-03-21T08:55:02.883Z,12.50
2023-03-21T08:56:02.839Z,12.50
2023-03-21T08:57:02.965Z,12.50
2023-03-21T08:58:02.875Z,12.50
2023-03-21T08:59:02.952Z,12.50
2023-03-21T09:00:03.013Z,12.50
2023-03-21T09:01:02.947Z,12.50
2023-03-21T09:02:03.041Z,12.50
2023-03-21T09:03:02.905Z,12.60
2023-03-21T09:04:02.893Z,12.60
2023-03-21T09:05:02.905Z,12.60
2023-03-21T09:06:02.907Z,12.60
2023-03-21T09:07:02.874Z,12.60
2023-03-21T09:08:03.062Z,12.70
2023-03-21T09:09:03.016Z,12.70
2023-03-21T09:10:19.505Z,12.70
2023-03-21T09:11:03.019Z,12.80
2023-03-21T09:12:03.123Z,12.80
2023-03-21T09:13:03.032Z,12.90
2023-03-21T09:14:03.148Z,13.00
2023-03-21T09:15:03.332Z,13.00
2023-03-21T09:16:03.343Z,13.10
2023-03-21T09:17:03.638Z,13.20
2023-03-21T09:18:03.495Z,13.20
2023-03-21T09:19:03.376Z,13.30
2023-03-21T09:20:03.430Z,13.30
2023-03-21T09:21:03.467Z,13.30
2023-03-21T09:22:03.396Z,13.30
2023-03-21T09:23:03.534Z,13.40
2023-03-21T09:24:06.649Z,13.40
2023-03-21T09:25:03.450Z,13.50
2023-03-21T09:26:03.452Z,13.50
2023-03-21T09:27:03.481Z,13.60
2023-03-21T09:28:03.414Z,13.60
2023-03-21T09:29:03.494Z,13.60
2023-03-21T09:30:03.492Z,13.60
2023-03-21T09:31:03.503Z,13.70
2023-03-21T09:32:03.623Z,13.70
2023-03-21T09:33:03.636Z,13.70
2023-03-21T09:34:02.768Z,13.80
2023-03-21T09:35:02.773Z,13.80
2023-03-21T09:36:02.793Z,13.90
2023-03-21T09:37:02.965Z,13.90
2023-03-21T09:38:03.097Z,13.90
2023-03-21T09:39:03.003Z,14.00
2023-03-21T09:40:03.015Z,14.00
2023-03-21T09:41:03.190Z,14.10
2023-03-21T09:42:03.156Z,14.10
2023-03-21T09:43:03.053Z,14.10
2023-03-21T09:44:03.171Z,14.20
2023-03-21T09:45:03.239Z,14.20
2023-03-21T09:46:03.302Z,14.20
2023-03-21T09:47:03.364Z,14.20
2023-03-21T09:48:03.288Z,14.20
2023-03-21T09:49:03.196Z,14.20
2023-03-21T09:50:13.425Z,14.30
2023-03-21T09:51:03.174Z,14.30
2023-03-21T09:52:03.108Z,14.30
2023-03-21T09:53:03.173Z,14.30
2023-03-21T09:54:03.178Z,14.40
2023-03-21T09:55:03.206Z,14.40
2023-03-21T09:56:03.328Z,14.40
2023-03-21T09:57:03.296Z,14.50
2023-03-21T09:58:03.405Z,14.50
2023-03-21T09:59:03.367Z,14.50
2023-03-21T10:00:03.228Z,14.50
2023-03-21T10:01:03.320Z,14.50
2023-03-21T10:02:03.317Z,14.50
2023-03-21T10:03:03.392Z,14.60
2023-03-21T10:04:03.296Z,14.60
2023-03-21T10:05:03.301Z,14.60
2023-03-21T10:06:03.263Z,14.60
2023-03-21T10:07:03.420Z,14.70
2023-03-21T10:08:03.346Z,14.70
2023-03-21T10:09:03.417Z,14.70
2023-03-21T10:10:03.312Z,14.70
2023-03-21T10:11:03.341Z,14.80
2023-03-21T10:12:03.464Z,14.80
2023-03-21T10:13:03.377Z,14.80
2023-03-21T10:14:03.415Z,14.80
2023-03-21T10:15:03.418Z,14.80
2023-03-21T10:16:03.552Z,14.90
2023-03-21T10:17:03.464Z,14.90
2023-03-21T10:18:03.523Z,14.90
2023-03-21T10:19:02.727Z,14.90
2023-03-21T10:20:02.828Z,15.00
2023-03-21T10:21:02.746Z,15.00
2023-03-21T10:22:03.785Z,15.00
2023-03-21T10:23:02.866Z,14.90
2023-03-21T10:24:02.933Z,14.90
2023-03-21T10:25:02.907Z,14.90
2023-03-21T10:26:02.963Z,14.90
2023-03-21T10:27:02.964Z,14.90
2023-03-21T10:28:02.946Z,15.00
2023-03-21T10:29:03.066Z,15.00
2023-03-21T10:30:03.036Z,15.00
2023-03-21T10:31:02.970Z,15.00
2023-03-21T10:32:03.094Z,15.00
2023-03-21T10:33:03.147Z,15.00
2023-03-21T10:34:03.206Z,15.10
2023-03-21T10:35:03.160Z,15.10
2023-03-21T10:36:03.279Z,15.10
2023-03-21T10:37:03.700Z,15.10
2023-03-21T10:38:03.396Z,15.20
2023-03-21T10:39:03.472Z,15.20
2023-03-21T10:40:03.440Z,15.20
2023-03-21T10:41:03.533Z,15.20
2023-03-21T10:42:03.681Z,15.20
2023-03-21T10:43:03.545Z,15.30
2023-03-21T10:44:03.641Z,15.20
2023-03-21T10:45:03.587Z,15.30
2023-03-21T10:46:03.664Z,15.30
2023-03-21T10:47:03.730Z,15.30
2023-03-21T10:48:03.071Z,15.30
2023-03-21T10:49:02.874Z,15.30
2023-03-21T10:50:07.998Z,15.30
2023-03-21T10:51:02.956Z,15.30
2023-03-21T10:52:03.043Z,15.30
2023-03-21T10:53:03.124Z,15.40
2023-03-21T10:54:03.255Z,15.40
2023-03-21T10:55:03.202Z,15.40
2023-03-21T10:56:03.285Z,15.50
2023-03-21T10:57:03.303Z,15.50
2023-03-21T10:58:03.356Z,15.50
2023-03-21T10:59:03.536Z,15.60
2023-03-21T11:00:03.337Z,15.70
2023-03-21T11:01:03.504Z,15.70
2023-03-21T11:02:03.315Z,15.70
2023-03-21T11:03:03.181Z,15.70
2023-03-21T11:04:03.221Z,15.70
2023-03-21T11:05:03.264Z,15.70
2023-03-21T11:06:03.211Z,15.80
2023-03-21T11:07:03.164Z,15.70
2023-03-21T11:08:03.093Z,15.80
2023-03-21T11:09:03.052Z,15.80
2023-03-21T11:10:03.153Z,15.80
2023-03-21T11:11:03.200Z,15.90
2023-03-21T11:12:03.173Z,15.90
2023-03-21T11:13:03.162Z,15.90
2023-03-21T11:14:03.117Z,16.00
2023-03-21T11:15:03.088Z,16.00
2023-03-21T11:16:03.228Z,16.00
2023-03-21T11:17:03.235Z,16.10
2023-03-21T11:18:03.216Z,16.10
2023-03-21T11:19:03.261Z,16.10
2023-03-21T11:20:03.178Z,16.10
2023-03-21T11:21:03.172Z,16.10
2023-03-21T11:22:03.089Z,16.10
2023-03-21T11:23:03.133Z,16.20
2023-03-21T11:24:03.514Z,16.20
2023-03-21T11:25:03.394Z,16.20
2023-03-21T11:26:03.376Z,16.20
2023-03-21T11:27:03.475Z,16.20
2023-03-21T11:28:03.333Z,16.20
2023-03-21T11:29:03.303Z,16.20
2023-03-21T11:30:03.197Z,16.20
2023-03-21T11:31:03.266Z,16.20
2023-03-21T11:32:03.186Z,16.20
2023-03-21T11:33:03.189Z,16.20
2023-03-21T11:34:03.246Z,16.20
2023-03-21T11:35:03.404Z,16.20
2023-03-21T11:36:03.251Z,16.20
2023-03-21T11:37:03.154Z,16.30
2023-03-21T11:38:03.296Z,16.30
2023-03-21T11:39:03.242Z,16.30
2023-03-21T11:40:03.304Z,16.40
2023-03-21T11:41:03.333Z,16.40
2023-03-21T11:42:03.540Z,16.50
2023-03-21T11:43:03.451Z,16.50
2023-03-21T11:44:03.369Z,16.50
2023-03-21T11:45:03.510Z,16.50
2023-03-21T11:46:03.522Z,16.60
2023-03-21T11:47:03.502Z,16.50
2023-03-21T11:48:03.637Z,16.60
2023-03-21T11:49:03.550Z,16.60
2023-03-21T11:50:05.153Z,16.60
2023-03-21T11:51:03.454Z,16.60
2023-03-21T11:52:03.519Z,16.70
2023-03-21T11:53:03.532Z,16.70
2023-03-21T11:54:03.573Z,16.70
2023-03-21T11:55:03.552Z,16.80
2023-03-21T11:56:03.604Z,16.80
2023-03-21T11:57:03.534Z,16.80
2023-03-21T11:58:13.676Z,16.80
2023-03-21T11:59:03.508Z,16.80
2023-03-21T12:00:03.406Z,16.90
2023-03-21T12:01:03.413Z,16.80
2023-03-21T12:02:03.448Z,16.90
2023-03-21T12:03:03.443Z,16.90
2023-03-21T12:04:03.344Z,16.90
2023-03-21T12:05:03.240Z,16.80
2023-03-21T12:06:03.148Z,16.80
2023-03-21T12:07:03.058Z,16.90
2023-03-21T12:08:03.133Z,16.80
2023-03-21T12:09:03.128Z,16.80
2023-03-21T12:10:03.152Z,16.80
2023-03-21T12:11:03.218Z,16.80
2023-03-21T12:12:03.178Z,16.80
2023-03-21T12:13:03.106Z,16.80
2023-03-21T12:14:03.086Z,16.80
2023-03-21T12:15:03.126Z,16.80
2023-03-21T12:16:03.324Z,16.70
2023-03-21T12:17:03.189Z,16.70
2023-03-21T12:18:03.233Z,16.70
2023-03-21T12:19:03.248Z,16.70
2023-03-21T12:20:03.129Z,16.70
2023-03-21T12:21:03.175Z,16.70
2023-03-21T12:22:03.126Z,16.70
2023-03-21T12:23:03.247Z,16.80
2023-03-21T12:24:03.039Z,16.80
2023-03-21T12:25:03.175Z,16.80
2023-03-21T12:26:03.170Z,16.80
2023-03-21T12:27:03.089Z,16.70
2023-03-21T12:28:03.188Z,16.70
2023-03-21T12:29:03.224Z,16.80
2023-03-21T12:30:03.110Z,16.80
2023-03-21T12:31:03.116Z,16.70
2023-03-21T12:32:03.067Z,16.80
2023-03-21T12:33:03.009Z,16.80
2023-03-21T12:34:02.920Z,16.80
2023-03-21T12:35:02.872Z,16.80
2023-03-21T12:36:02.980Z,16.80
2023-03-21T12:37:02.902Z,16.80
2023-03-21T12:38:02.951Z,16.90
2023-03-21T12:39:03.049Z,16.90
2023-03-21T12:40:03.163Z,16.90
2023-03-21T12:41:03.321Z,16.90
2023-03-21T12:42:02.874Z,16.80
2023-03-21T12:43:02.754Z,16.80
2023-03-21T12:44:02.633Z,16.80
2023-03-21T12:45:06.215Z,16.80
2023-03-21T12:46:03.538Z,16.80
2023-03-21T12:47:03.641Z,16.80
2023-03-21T12:48:03.494Z,16.80
2023-03-21T12:49:03.477Z,16.80
2023-03-21T12:50:03.348Z,16.80
2023-03-21T12:51:03.371Z,16.80
2023-03-21T12:52:03.184Z,16.80
2023-03-21T12:53:03.164Z,16.80
2023-03-21T12:54:03.177Z,16.80
2023-03-21T12:55:03.142Z,16.80
2023-03-21T12:56:03.070Z,16.80
2023-03-21T12:57:03.108Z,16.80
2023-03-21T12:58:03.107Z,16.80
2023-03-21T12:59:03.051Z,16.80
2023-03-21T13:00:03.040Z,16.80
2023-03-21T13:01:03.017Z,16.80
2023-03-21T13:02:02.919Z,16.80
2023-03-21T13:03:03.027Z,16.80
2023-03-21T13:04:03.094Z,16.70
2023-03-21T13:05:02.935Z,16.70
2023-03-21T13:06:02.946Z,16.70
2023-03-21T13:07:02.934Z,16.70
2023-03-21T13:08:02.837Z,16.70
2023-03-21T13:09:02.850Z,16.70